Main page
METAR-TAF:

METAR-TAF

Airports :

Grosse Ile Municipal Airport

Detroit / Grosse Ile, Michigan, United States

latitude: 42-05-55N, longitude: 083-09-40W, elevation: 180 m

Current weather observation

The report was made 32 minutes ago, at 17:35 UTC
Wind 4 kt from the South
Temperature 30°C
Humidity 49%
Pressure 1024 hPa
Visibility: 16.1 km
Clear sky

METAR: KONZ 191735Z AUTO 19004KT 10SM CLR 30/18 A3025 RMK AO2 T02980180

Time: 14:07 (18:07 UTC)


TAF: missing

Weather observations and forecasts of more than 4000 airports (METAR and TAF reports).

The available stations are represented by yellow and red dots on the map.

Hover mouse over dot to see the name of the station.

Then click to see weather observations and forecasts.

To change the map : click on the green buttons with a black cross to zoom in, on the green button with a dash to zoom out, or on the green arrows for adjacent maps.


METAR-TAF: